Time;durP1;ratioP1;P1;durP2;ratioP2;P2;SDS_P1;SDS_P2;PMS_P1;PMS_P2;Temp;Humidity;BMP_temperature;BMP_pressure;BME280_temperature;BME280_humidity;BME280_pressure;Samples;Min_cycle;Max_cycle;Signal;HPM_P1;HPM_P2
2022/08/05 00:00:47;;;;;;;;;;;22.80;70.70;;;;;;5093936;28;20050;-74
2022/08/05 00:03:12;;;;;;;;;;;22.80;70.70;;;;;;5091811;28;19938;-73
2022/08/05 00:05:38;;;;;;;;;;;22.80;70.80;;;;;;5091969;28;20392;-73
2022/08/05 00:08:03;;;;;;;;;;;22.80;70.80;;;;;;5091927;28;20333;-74
2022/08/05 00:10:29;;;;;;;;;;;22.90;70.70;;;;;;5089979;28;19916;-74
2022/08/05 00:12:55;;;;;;;;;;;22.90;70.60;;;;;;5092897;28;19908;-72
2022/08/05 00:15:20;;;;;;;;;;;22.90;70.60;;;;;;5094055;28;19916;-73
2022/08/05 00:17:46;;;;;;;;;;;22.80;70.70;;;;;;5092824;28;20015;-73
2022/08/05 00:20:11;;;;;;;;;;;22.80;70.70;;;;;;5091567;28;19938;-72
2022/08/05 00:22:37;;;;;;;;;;;22.80;70.90;;;;;;5107916;28;19924;-73
2022/08/05 00:25:03;;;;;;;;;;;22.80;71.00;;;;;;5094319;28;19916;-72
2022/08/05 00:27:29;;;;;;;;;;;22.70;70.90;;;;;;5091935;28;19913;-73
2022/08/05 00:29:55;;;;;;;;;;;22.70;71.70;;;;;;5096702;28;20290;-68
2022/08/05 00:32:20;;;;;;;;;;;22.70;71.00;;;;;;5091003;28;19916;-68
2022/08/05 00:34:46;;;;;;;;;;;22.70;70.80;;;;;;5090893;28;19927;-68
2022/08/05 00:37:12;;;;;;;;;;;22.70;70.80;;;;;;5092593;28;19912;-68
2022/08/05 00:39:39;;;;;;;;;;;22.70;70.80;;;;;;5087600;28;19924;-68
2022/08/05 00:42:04;;;;;;;;;;;22.70;71.00;;;;;;5091840;28;19916;-68
2022/08/05 00:44:30;;;;;;;;;;;22.70;71.00;;;;;;5095874;28;19923;-68
2022/08/05 00:46:55;;;;;;;;;;;22.60;71.00;;;;;;5096913;28;19919;-68
2022/08/05 00:49:21;;;;;;;;;;;22.60;71.10;;;;;;5092696;28;19920;-68
2022/08/05 00:51:46;;;;;;;;;;;22.70;71.10;;;;;;5096279;28;19935;-68
2022/08/05 00:54:12;;;;;;;;;;;22.70;71.10;;;;;;5095514;28;19924;-68
2022/08/05 00:56:38;;;;;;;;;;;22.60;71.00;;;;;;5097030;28;19916;-68
2022/08/05 00:59:04;;;;;;;;;;;22.50;71.00;;;;;;5100922;28;19915;-68
2022/08/05 01:01:29;;;;;;;;;;;22.50;71.20;;;;;;5099110;28;19965;-68
2022/08/05 01:03:55;;;;;;;;;;;22.40;71.40;;;;;;5094537;28;19915;-68
2022/08/05 01:06:20;;;;;;;;;;;22.40;71.40;;;;;;5096425;28;19969;-69
2022/08/05 01:08:46;;;;;;;;;;;22.40;71.60;;;;;;5090847;28;19923;-68
2022/08/05 01:11:20;;;;;;;;;;;22.40;71.60;;;;;;5095113;28;20405;-69
2022/08/05 01:13:57;;;;;;;;;;;22.30;71.60;;;;;;5096591;28;20451;-68
2022/08/05 01:16:29;;;;;;;;;;;22.30;71.60;;;;;;5097748;28;19911;-68
2022/08/05 01:18:57;;;;;;;;;;;22.30;71.80;;;;;;5094062;28;19986;-73
2022/08/05 01:21:34;;;;;;;;;;;22.30;71.90;;;;;;5091705;28;19912;-68
2022/08/05 01:24:09;;;;;;;;;;;22.20;72.00;;;;;;5099966;28;19920;-68
2022/08/05 01:26:53;;;;;;;;;;;22.20;72.20;;;;;;5099686;28;19912;-68
2022/08/05 01:29:28;;;;;;;;;;;22.10;72.10;;;;;;5116159;27;19922;-68
2022/08/05 01:31:57;;;;;;;;;;;22.20;72.10;;;;;;5097098;28;19916;-68
2022/08/05 01:34:46;;;;;;;;;;;22.10;72.10;;;;;;5099745;28;19975;-68
2022/08/05 01:37:15;;;;;;;;;;;22.10;72.10;;;;;;5096167;28;19908;-68
2022/08/05 01:39:41;;;;;;;;;;;22.10;72.30;;;;;;5100288;28;19912;-69
2022/08/05 01:42:09;;;;;;;;;;;22.10;72.30;;;;;;5088694;28;19912;-68
2022/08/05 01:44:36;;;;;;;;;;;22.00;72.40;;;;;;5084382;28;19923;-68
2022/08/05 01:47:02;;;;;;;;;;;22.10;72.40;;;;;;5092402;28;19908;-68
2022/08/05 01:49:28;;;;;;;;;;;22.10;72.50;;;;;;5099570;28;20222;-68
2022/08/05 01:51:59;;;;;;;;;;;22.00;72.30;;;;;;5096041;28;19924;-68
2022/08/05 01:54:27;;;;;;;;;;;22.00;72.40;;;;;;5100669;28;19962;-68
2022/08/05 01:56:55;;;;;;;;;;;22.10;72.40;;;;;;5099595;28;19912;-68
2022/08/05 01:59:22;;;;;;;;;;;22.10;72.40;;;;;;5091878;28;19919;-68
2022/08/05 02:01:50;;;;;;;;;;;22.10;72.20;;;;;;5083514;28;20274;-68
2022/08/05 02:04:17;;;;;;;;;;;22.00;72.30;;;;;;5092274;28;20007;-69
2022/08/05 02:06:42;;;;;;;;;;;21.90;72.30;;;;;;5090517;28;19916;-68
2022/08/05 02:09:08;;;;;;;;;;;21.90;72.50;;;;;;5091806;28;19912;-68
2022/08/05 02:11:41;;;;;;;;;;;22.00;72.40;;;;;;5091528;28;19917;-68
2022/08/05 02:14:16;;;;;;;;;;;22.00;72.40;;;;;;5091309;28;19924;-68
2022/08/05 02:16:52;;;;;;;;;;;22.00;72.40;;;;;;5092431;28;19919;-68
2022/08/05 02:19:26;;;;;;;;;;;22.10;72.40;;;;;;5096837;28;19977;-68
2022/08/05 02:21:57;;;;;;;;;;;22.10;72.30;;;;;;5091246;28;19939;-68
2022/08/05 02:24:26;;;;;;;;;;;22.10;72.20;;;;;;5084768;28;19939;-68
2022/08/05 02:26:54;;;;;;;;;;;22.10;72.30;;;;;;5092046;28;19951;-68
2022/08/05 02:29:21;;;;;;;;;;;22.10;72.30;;;;;;5092113;28;19914;-69
2022/08/05 02:31:47;;;;;;;;;;;22.00;72.80;;;;;;5091839;28;19908;-68
2022/08/05 02:34:14;;;;;;;;;;;22.10;72.20;;;;;;5092834;28;19965;-74
2022/08/05 02:36:47;;;;;;;;;;;22.10;72.70;;;;;;5090853;28;19953;-74
2022/08/05 02:39:15;;;;;;;;;;;22.10;72.10;;;;;;5088573;28;20281;-74
2022/08/05 02:41:41;;;;;;;;;;;22.10;72.20;;;;;;5090738;28;19934;-68
2022/08/05 02:44:07;;;;;;;;;;;22.20;72.10;;;;;;5090103;28;19965;-73
2022/08/05 02:46:34;;;;;;;;;;;22.20;72.10;;;;;;5082104;28;19954;-73
2022/08/05 02:49:00;;;;;;;;;;;22.20;72.00;;;;;;5093999;28;20366;-73
2022/08/05 02:51:26;;;;;;;;;;;22.20;72.10;;;;;;5092223;28;19912;-73
2022/08/05 02:53:52;;;;;;;;;;;22.20;72.20;;;;;;5071394;28;20020;-74
2022/08/05 02:56:18;;;;;;;;;;;22.20;72.20;;;;;;5093471;28;19951;-73
2022/08/05 02:58:48;;;;;;;;;;;22.10;72.30;;;;;;5092735;28;19955;-73
2022/08/05 03:01:17;;;;;;;;;;;22.10;72.30;;;;;;5093797;28;20147;-73
2022/08/05 03:03:43;;;;;;;;;;;22.10;72.30;;;;;;5090133;28;19916;-74
2022/08/05 03:06:10;;;;;;;;;;;22.10;72.20;;;;;;5093460;28;19913;-73
2022/08/05 03:08:37;;;;;;;;;;;22.00;72.20;;;;;;5091906;28;19914;-69
2022/08/05 03:11:02;;;;;;;;;;;22.00;72.40;;;;;;5090406;28;19915;-68
2022/08/05 03:13:28;;;;;;;;;;;22.00;72.40;;;;;;5091419;28;20279;-68
2022/08/05 03:15:53;;;;;;;;;;;21.90;72.50;;;;;;5091013;28;20401;-68
2022/08/05 03:18:19;;;;;;;;;;;21.80;72.70;;;;;;5091858;28;19920;-68
2022/08/05 03:20:44;;;;;;;;;;;21.80;73.00;;;;;;5091585;28;19919;-68
2022/08/05 03:23:13;;;;;;;;;;;21.80;72.90;;;;;;5092001;28;19931;-68
2022/08/05 03:25:39;;;;;;;;;;;21.80;72.90;;;;;;5088723;28;19923;-68
2022/08/05 03:28:06;;;;;;;;;;;21.90;72.80;;;;;;5089359;28;19912;-68
2022/08/05 03:30:35;;;;;;;;;;;21.90;72.80;;;;;;5079629;28;20512;-68
2022/08/05 03:33:02;;;;;;;;;;;21.90;72.80;;;;;;5092044;28;19958;-68
2022/08/05 03:35:28;;;;;;;;;;;22.00;72.80;;;;;;5089399;28;19916;-69
2022/08/05 03:37:57;;;;;;;;;;;21.90;72.80;;;;;;5088571;28;20263;-68
2022/08/05 03:40:23;;;;;;;;;;;21.90;72.70;;;;;;5071891;28;19995;-74
2022/08/05 03:42:48;;;;;;;;;;;21.90;72.70;;;;;;5091665;28;19912;-73
2022/08/05 03:45:14;;;;;;;;;;;22.00;72.70;;;;;;5091986;28;20023;-74
2022/08/05 03:47:39;;;;;;;;;;;21.90;72.80;;;;;;5092730;28;19913;-73
2022/08/05 03:50:05;;;;;;;;;;;22.00;72.90;;;;;;5090896;28;19961;-73
2022/08/05 03:52:32;;;;;;;;;;;21.90;72.90;;;;;;5092085;28;19916;-74
2022/08/05 03:55:00;;;;;;;;;;;21.90;73.00;;;;;;5088628;28;19919;-69
2022/08/05 03:57:28;;;;;;;;;;;21.80;73.10;;;;;;5090956;28;19961;-69
2022/08/05 03:59:59;;;;;;;;;;;21.80;73.20;;;;;;5097688;27;19930;-69
2022/08/05 04:02:27;;;;;;;;;;;21.80;73.90;;;;;;5099674;28;20244;-69
2022/08/05 04:04:52;;;;;;;;;;;21.70;73.20;;;;;;5096814;28;19918;-69
2022/08/05 04:07:18;;;;;;;;;;;21.70;73.20;;;;;;5101178;28;19916;-74
2022/08/05 04:09:44;;;;;;;;;;;21.70;73.20;;;;;;5102007;28;19921;-74
2022/08/05 04:12:10;;;;;;;;;;;21.70;73.30;;;;;;5104162;28;19923;-74
2022/08/05 04:14:35;;;;;;;;;;;21.70;73.30;;;;;;5116646;27;19954;-73
2022/08/05 04:17:01;;;;;;;;;;;21.70;73.30;;;;;;5096854;28;19923;-69
2022/08/05 04:19:27;;;;;;;;;;;21.70;73.30;;;;;;5100217;28;20166;-69
2022/08/05 04:21:53;;;;;;;;;;;21.70;73.20;;;;;;5102489;28;19916;-69
2022/08/05 04:24:18;;;;;;;;;;;21.70;73.20;;;;;;5101846;28;19932;-69
2022/08/05 04:26:49;;;;;;;;;;;21.70;73.20;;;;;;5098475;28;19916;-74
2022/08/05 04:29:15;;;;;;;;;;;21.70;73.30;;;;;;5086555;28;19913;-74
2022/08/05 04:31:40;;;;;;;;;;;21.70;73.30;;;;;;5090320;28;19960;-74
2022/08/05 04:34:06;;;;;;;;;;;21.70;73.40;;;;;;5083063;28;19916;-74
2022/08/05 04:36:32;;;;;;;;;;;21.70;73.40;;;;;;5090138;28;19956;-69
2022/08/05 04:38:57;;;;;;;;;;;21.70;73.40;;;;;;5087735;28;19970;-69
2022/08/05 04:41:23;;;;;;;;;;;21.70;73.40;;;;;;5090819;28;20048;-69
2022/08/05 04:43:48;;;;;;;;;;;21.70;73.40;;;;;;5089208;28;19980;-69
2022/08/05 04:46:14;;;;;;;;;;;21.70;73.50;;;;;;5087554;28;19928;-69
2022/08/05 04:48:39;;;;;;;;;;;21.60;73.60;;;;;;5086245;28;19923;-69
2022/08/05 04:51:05;;;;;;;;;;;21.60;73.80;;;;;;5088384;28;20394;-69
2022/08/05 04:53:30;;;;;;;;;;;21.50;73.90;;;;;;5086294;28;20377;-69
2022/08/05 04:55:56;;;;;;;;;;;21.40;74.00;;;;;;5085069;28;19928;-69
2022/08/05 04:58:21;;;;;;;;;;;21.40;74.20;;;;;;5088620;28;19916;-69
2022/08/05 05:00:47;;;;;;;;;;;21.40;74.20;;;;;;5087568;28;19984;-69
2022/08/05 05:03:12;;;;;;;;;;;21.50;74.10;;;;;;5089541;28;19924;-69
2022/08/05 05:05:38;;;;;;;;;;;21.50;74.00;;;;;;5082605;28;19961;-69
2022/08/05 05:08:05;;;;;;;;;;;21.60;73.90;;;;;;5089655;28;19922;-74
2022/08/05 05:10:32;;;;;;;;;;;21.60;73.90;;;;;;5090137;28;19965;-74
2022/08/05 05:12:58;;;;;;;;;;;21.60;74.00;;;;;;5090187;28;20378;-74
2022/08/05 05:15:24;;;;;;;;;;;21.60;73.90;;;;;;5090917;28;19926;-74
2022/08/05 05:17:50;;;;;;;;;;;21.60;73.80;;;;;;5092272;28;19908;-74
2022/08/05 05:20:15;;;;;;;;;;;21.60;73.70;;;;;;5084381;28;19916;-74
2022/08/05 05:22:41;;;;;;;;;;;21.70;73.80;;;;;;5091930;28;19912;-74
2022/08/05 05:25:07;;;;;;;;;;;21.70;73.70;;;;;;5097548;28;20459;-74
2022/08/05 05:27:34;;;;;;;;;;;21.70;73.70;;;;;;5099799;28;19913;-74
2022/08/05 05:30:00;;;;;;;;;;;21.70;73.70;;;;;;5094267;28;19916;-74
2022/08/05 05:32:25;;;;;;;;;;;21.80;73.60;;;;;;5094010;28;19912;-74
2022/08/05 05:34:51;;;;;;;;;;;21.80;73.60;;;;;;5093520;28;19923;-74
2022/08/05 05:37:16;;;;;;;;;;;21.80;73.80;;;;;;5088878;28;19912;-74
2022/08/05 05:39:42;;;;;;;;;;;21.80;73.80;;;;;;5086572;28;19915;-74
2022/08/05 05:42:07;;;;;;;;;;;21.80;74.00;;;;;;5093321;28;20394;-74
2022/08/05 05:44:33;;;;;;;;;;;21.80;74.00;;;;;;5094570;28;20363;-74
2022/08/05 05:46:59;;;;;;;;;;;21.80;73.90;;;;;;5092449;28;20336;-74
2022/08/05 05:49:25;;;;;;;;;;;21.80;73.80;;;;;;5093677;28;21304;-74
2022/08/05 05:51:50;;;;;;;;;;;21.80;73.80;;;;;;5089623;28;19913;-74
2022/08/05 05:54:16;;;;;;;;;;;21.90;73.80;;;;;;5085082;28;19923;-74
2022/08/05 05:56:41;;;;;;;;;;;21.90;73.90;;;;;;5095221;28;20018;-74
2022/08/05 05:59:07;;;;;;;;;;;21.80;73.80;;;;;;5089605;28;19924;-74
2022/08/05 06:01:33;;;;;;;;;;;21.80;73.90;;;;;;5092278;28;19924;-74
2022/08/05 06:03:59;;;;;;;;;;;21.80;73.80;;;;;;5089995;28;19927;-74
2022/08/05 06:06:24;;;;;;;;;;;21.90;73.80;;;;;;5103898;28;20340;-74
2022/08/05 06:08:50;;;;;;;;;;;21.90;73.80;;;;;;5093109;28;19956;-74
2022/08/05 06:11:15;;;;;;;;;;;21.90;73.70;;;;;;5084260;28;19974;-74
2022/08/05 06:13:41;;;;;;;;;;;21.90;74.30;;;;;;5089754;28;19917;-69
2022/08/05 06:16:06;;;;;;;;;;;21.90;73.60;;;;;;5088353;28;20410;-69
2022/08/05 06:18:32;;;;;;;;;;;21.90;73.40;;;;;;5091068;28;19912;-69
2022/08/05 06:20:58;;;;;;;;;;;21.90;73.40;;;;;;5089431;28;19924;-69
2022/08/05 06:23:23;;;;;;;;;;;21.80;73.50;;;;;;5092438;28;20298;-69
2022/08/05 06:25:50;;;;;;;;;;;21.80;73.50;;;;;;5091425;28;19965;-69
2022/08/05 06:28:15;;;;;;;;;;;21.90;73.50;;;;;;5076536;28;19983;-69
2022/08/05 06:30:41;;;;;;;;;;;21.90;73.60;;;;;;5086634;28;19955;-69
2022/08/05 06:33:07;;;;;;;;;;;22.00;73.50;;;;;;5093604;28;19912;-69
2022/08/05 06:35:32;;;;;;;;;;;22.00;73.60;;;;;;5091826;28;19908;-69
2022/08/05 06:37:58;;;;;;;;;;;22.10;73.40;;;;;;5092847;28;19920;-74
2022/08/05 06:40:23;;;;;;;;;;;22.10;73.30;;;;;;5092564;28;19923;-74
2022/08/05 06:42:49;;;;;;;;;;;22.10;73.10;;;;;;5079858;28;19920;-74
2022/08/05 06:45:15;;;;;;;;;;;22.00;72.90;;;;;;5079332;28;19923;-69
2022/08/05 06:47:40;;;;;;;;;;;22.00;72.90;;;;;;5091980;28;19912;-69
2022/08/05 06:50:06;;;;;;;;;;;21.90;73.00;;;;;;5087898;28;19913;-69
2022/08/05 06:52:32;;;;;;;;;;;22.00;73.10;;;;;;5084042;28;19939;-69
2022/08/05 06:54:57;;;;;;;;;;;21.90;72.90;;;;;;5088732;28;21338;-75
2022/08/05 06:57:23;;;;;;;;;;;22.00;73.00;;;;;;5093360;28;20696;-75
2022/08/05 06:59:49;;;;;;;;;;;21.90;73.00;;;;;;5090555;28;19917;-73
2022/08/05 07:02:15;;;;;;;;;;;22.00;73.00;;;;;;5087140;28;20375;-73
2022/08/05 07:04:40;;;;;;;;;;;22.10;72.90;;;;;;5099092;28;19924;-73
2022/08/05 07:07:08;;;;;;;;;;;22.20;72.60;;;;;;5085983;28;19912;-74
2022/08/05 07:09:34;;;;;;;;;;;22.30;72.40;;;;;;5074224;28;19943;-74
2022/08/05 07:12:00;;;;;;;;;;;22.30;72.20;;;;;;5089304;28;20401;-74
2022/08/05 07:17:09;;;;;;;;;;;22.30;72.40;;;;;;5094420;28;19922;-75
2022/08/05 07:19:35;;;;;;;;;;;22.30;72.10;;;;;;5086028;28;19912;-74
2022/08/05 07:22:00;;;;;;;;;;;22.30;72.20;;;;;;5104361;28;20418;-74
2022/08/05 07:24:26;;;;;;;;;;;22.30;72.10;;;;;;5092277;28;19916;-73
2022/08/05 07:26:52;;;;;;;;;;;22.40;72.00;;;;;;5092000;28;19908;-75
2022/08/05 07:29:17;;;;;;;;;;;22.50;72.00;;;;;;5090555;28;19921;-75
2022/08/05 07:31:43;;;;;;;;;;;22.50;71.80;;;;;;5105586;28;19916;-75
2022/08/05 07:34:08;;;;;;;;;;;22.60;71.50;;;;;;5092390;28;19920;-73
2022/08/05 07:36:34;;;;;;;;;;;22.60;71.30;;;;;;5095133;28;20324;-73
2022/08/05 07:39:00;;;;;;;;;;;22.60;71.00;;;;;;5084920;28;20496;-74
2022/08/05 07:41:26;;;;;;;;;;;22.60;70.80;;;;;;5088591;28;20438;-75
2022/08/05 07:43:53;;;;;;;;;;;22.60;70.60;;;;;;5097830;28;19924;-74
2022/08/05 07:46:18;;;;;;;;;;;22.70;70.50;;;;;;5099323;27;19924;-76
2022/08/05 07:48:44;;;;;;;;;;;22.70;70.70;;;;;;5089715;28;19947;-70
2022/08/05 07:51:09;;;;;;;;;;;22.80;70.50;;;;;;5085170;28;19919;-70
2022/08/05 07:53:37;;;;;;;;;;;22.90;70.20;;;;;;5096891;28;19923;-70
2022/08/05 07:56:03;;;;;;;;;;;22.90;69.70;;;;;;5093977;28;20352;-70
2022/08/05 07:58:31;;;;;;;;;;;22.90;69.40;;;;;;5097863;28;19919;-69
2022/08/05 08:00:57;;;;;;;;;;;22.90;69.50;;;;;;5091706;28;20534;-70
2022/08/05 08:03:23;;;;;;;;;;;22.90;69.30;;;;;;5080683;28;19935;-70
2022/08/05 08:05:51;;;;;;;;;;;22.90;69.20;;;;;;5086625;28;19927;-71
2022/08/05 08:08:17;;;;;;;;;;;23.20;68.90;;;;;;5081786;28;19920;-71
2022/08/05 08:10:42;;;;;;;;;;;23.20;68.20;;;;;;5076076;28;19931;-70
2022/08/05 08:13:08;;;;;;;;;;;23.30;67.90;;;;;;5097710;28;19919;-76
2022/08/05 08:15:33;;;;;;;;;;;23.40;67.80;;;;;;5097403;28;20405;-71
2022/08/05 08:17:59;;;;;;;;;;;23.40;67.50;;;;;;5083718;28;19924;-70
2022/08/05 08:20:24;;;;;;;;;;;23.50;67.40;;;;;;5079369;28;20374;-71
2022/08/05 08:22:54;;;;;;;;;;;23.50;67.10;;;;;;5076216;28;20023;-71
2022/08/05 08:25:19;;;;;;;;;;;23.50;66.50;;;;;;5082279;28;20359;-75
2022/08/05 08:27:45;;;;;;;;;;;23.60;66.10;;;;;;5088136;28;20336;-76
2022/08/05 08:30:11;;;;;;;;;;;23.60;65.40;;;;;;5089783;28;19909;-75
2022/08/05 08:32:36;;;;;;;;;;;23.60;64.60;;;;;;5089563;28;20347;-75
2022/08/05 08:35:02;;;;;;;;;;;23.70;64.60;;;;;;5087363;28;19912;-76
2022/08/05 08:37:28;;;;;;;;;;;23.80;64.30;;;;;;5088808;28;19912;-75
2022/08/05 08:39:54;;;;;;;;;;;24.00;63.50;;;;;;5098059;28;19920;-75
2022/08/05 08:42:20;;;;;;;;;;;24.10;62.70;;;;;;5091397;28;19919;-74
2022/08/05 08:44:46;;;;;;;;;;;24.10;62.90;;;;;;5092995;28;19918;-75
2022/08/05 08:47:12;;;;;;;;;;;24.30;63.00;;;;;;5089718;28;19912;-75
2022/08/05 08:49:38;;;;;;;;;;;24.50;62.80;;;;;;5082051;28;20401;-69
2022/08/05 08:52:11;;;;;;;;;;;24.60;61.50;;;;;;5088440;28;19916;-69
2022/08/05 08:54:37;;;;;;;;;;;24.50;60.90;;;;;;5087135;28;20354;-69
2022/08/05 08:57:04;;;;;;;;;;;24.40;60.90;;;;;;5091159;28;19918;-75
2022/08/05 08:59:29;;;;;;;;;;;24.40;61.00;;;;;;5091679;28;19931;-75
2022/08/05 09:01:56;;;;;;;;;;;24.30;61.20;;;;;;5098353;28;20355;-76
2022/08/05 09:04:21;;;;;;;;;;;24.20;60.90;;;;;;5086101;28;19920;-75
2022/08/05 09:06:47;;;;;;;;;;;24.10;61.30;;;;;;5093827;28;19920;-75
2022/08/05 09:09:12;;;;;;;;;;;24.00;61.40;;;;;;5090185;28;20038;-76
2022/08/05 09:11:38;;;;;;;;;;;23.90;61.50;;;;;;5092461;28;19924;-77
2022/08/05 09:14:04;;;;;;;;;;;23.90;61.70;;;;;;5087333;28;19924;-70
2022/08/05 09:16:30;;;;;;;;;;;23.80;61.10;;;;;;5095741;28;19912;-70
2022/08/05 09:18:55;;;;;;;;;;;23.70;61.40;;;;;;5096331;28;20015;-70
2022/08/05 09:21:27;;;;;;;;;;;23.70;61.50;;;;;;5085379;28;20418;-70
2022/08/05 09:24:03;;;;;;;;;;;23.70;60.80;;;;;;5089684;28;19924;-70
2022/08/05 09:26:29;;;;;;;;;;;23.90;60.40;;;;;;5083038;28;19912;-70
2022/08/05 09:28:58;;;;;;;;;;;24.10;58.80;;;;;;5093798;28;19914;-70
2022/08/05 09:31:23;;;;;;;;;;;24.10;58.60;;;;;;5082816;28;19924;-75
2022/08/05 09:33:50;;;;;;;;;;;24.10;57.70;;;;;;5083851;28;19920;-76
2022/08/05 09:36:16;;;;;;;;;;;24.10;56.90;;;;;;5092855;28;19927;-76
2022/08/05 09:38:55;;;;;;;;;;;24.20;56.80;;;;;;5097583;28;20354;-70
2022/08/05 09:41:20;;;;;;;;;;;24.30;56.30;;;;;;5093455;28;20291;-70
2022/08/05 09:43:46;;;;;;;;;;;24.40;56.00;;;;;;5087654;28;19916;-70
2022/08/05 09:46:38;;;;;;;;;;;24.60;56.20;;;;;;5107319;28;19916;-70
2022/08/05 09:49:05;;;;;;;;;;;24.70;56.00;;;;;;5075040;28;19919;-76
2022/08/05 09:51:36;;;;;;;;;;;24.90;55.40;;;;;;5096336;28;19920;-75
2022/08/05 09:54:05;;;;;;;;;;;25.10;54.50;;;;;;5087061;28;19908;-74
2022/08/05 09:56:34;;;;;;;;;;;25.30;54.10;;;;;;5083515;28;19913;-76
2022/08/05 09:59:01;;;;;;;;;;;25.30;53.50;;;;;;5087736;28;19962;-75
2022/08/05 10:01:27;;;;;;;;;;;25.50;53.00;;;;;;5085288;28;20366;-76
2022/08/05 10:03:58;;;;;;;;;;;25.60;52.30;;;;;;5096336;28;19920;-76
2022/08/05 10:06:25;;;;;;;;;;;25.80;51.10;;;;;;5098133;28;19947;-76
2022/08/05 10:08:50;;;;;;;;;;;25.90;50.10;;;;;;5098955;28;19934;-76
2022/08/05 10:11:17;;;;;;;;;;;26.10;50.30;;;;;;5111206;28;19907;-75
2022/08/05 10:13:42;;;;;;;;;;;26.30;49.50;;;;;;5091521;28;19943;-70
2022/08/05 10:16:34;;;;;;;;;;;26.20;48.40;;;;;;5066540;28;19948;-70
2022/08/05 10:19:00;;;;;;;;;;;26.10;47.60;;;;;;5089154;28;19912;-70
2022/08/05 10:21:26;;;;;;;;;;;26.10;47.40;;;;;;5091629;28;19908;-71
2022/08/05 10:23:52;;;;;;;;;;;26.10;45.80;;;;;;5092224;28;19935;-70
2022/08/05 10:26:18;;;;;;;;;;;26.10;44.10;;;;;;5097482;28;19999;-70
2022/08/05 10:28:45;;;;;;;;;;;26.00;44.70;;;;;;5091534;28;19999;-70
2022/08/05 10:31:11;;;;;;;;;;;25.80;45.00;;;;;;5102868;28;20371;-70
2022/08/05 10:33:36;;;;;;;;;;;25.70;45.10;;;;;;5101025;28;19912;-70
2022/08/05 10:36:03;;;;;;;;;;;25.60;45.20;;;;;;5110581;28;19915;-70
2022/08/05 10:38:29;;;;;;;;;;;25.50;44.80;;;;;;5093529;28;19998;-70
2022/08/05 10:41:14;;;;;;;;;;;25.50;45.00;;;;;;5111905;28;19947;-75
2022/08/05 10:43:42;;;;;;;;;;;25.50;45.30;;;;;;5090011;28;19915;-76
2022/08/05 10:46:09;;;;;;;;;;;25.50;44.90;;;;;;5101492;28;19920;-76
2022/08/05 10:48:36;;;;;;;;;;;25.50;45.40;;;;;;5099762;28;20286;-75
2022/08/05 10:51:01;;;;;;;;;;;25.70;44.40;;;;;;5104685;28;19920;-76
2022/08/05 10:53:37;;;;;;;;;;;25.90;44.70;;;;;;5108206;28;20190;-76
2022/08/05 10:56:15;;;;;;;;;;;26.10;44.40;;;;;;5109705;28;19916;-76
2022/08/05 10:59:03;;;;;;;;;;;26.20;43.20;;;;;;5098290;28;20282;-76
2022/08/05 11:01:43;;;;;;;;;;;26.40;43.60;;;;;;5108356;28;19912;-76
2022/08/05 11:04:20;;;;;;;;;;;26.50;42.80;;;;;;5102487;28;20351;-75
2022/08/05 11:07:05;;;;;;;;;;;26.70;43.00;;;;;;5107859;28;19923;-76
2022/08/05 11:09:44;;;;;;;;;;;26.70;42.50;;;;;;5106115;28;20054;-76
2022/08/05 11:12:41;;;;;;;;;;;26.60;41.80;;;;;;5096359;28;19923;-76
2022/08/05 11:15:07;;;;;;;;;;;26.50;42.20;;;;;;5092121;28;19920;-70
2022/08/05 11:17:37;;;;;;;;;;;26.40;41.70;;;;;;5105008;28;19916;-75
2022/08/05 11:20:03;;;;;;;;;;;26.60;40.70;;;;;;5105106;28;20010;-75
2022/08/05 11:22:47;;;;;;;;;;;26.90;41.00;;;;;;5093829;28;19919;-75
2022/08/05 11:25:31;;;;;;;;;;;27.30;39.90;;;;;;5099167;28;20417;-75
2022/08/05 11:28:16;;;;;;;;;;;27.50;39.50;;;;;;5102844;28;20308;-76
2022/08/05 11:30:54;;;;;;;;;;;27.40;39.30;;;;;;5100944;28;19912;-75
2022/08/05 11:33:26;;;;;;;;;;;27.30;39.20;;;;;;5093711;28;19912;-76
2022/08/05 11:35:58;;;;;;;;;;;27.10;39.80;;;;;;5105345;28;19912;-75
2022/08/05 11:38:42;;;;;;;;;;;27.00;40.20;;;;;;5106983;28;19936;-76
2022/08/05 11:41:20;;;;;;;;;;;27.00;40.50;;;;;;5092687;28;19942;-76
2022/08/05 11:43:55;;;;;;;;;;;27.20;40.40;;;;;;5098874;28;20374;-76
2022/08/05 11:46:24;;;;;;;;;;;27.20;39.40;;;;;;5092213;28;19947;-75
2022/08/05 11:48:50;;;;;;;;;;;27.30;39.70;;;;;;5095975;28;19907;-75
2022/08/05 11:51:15;;;;;;;;;;;27.30;38.80;;;;;;5107170;28;19994;-76
2022/08/05 11:53:41;;;;;;;;;;;27.20;38.60;;;;;;5089824;28;20276;-75
2022/08/05 11:56:06;;;;;;;;;;;27.20;38.70;;;;;;5099526;28;20018;-70
2022/08/05 11:58:39;;;;;;;;;;;27.20;38.50;;;;;;5093430;28;20291;-69
2022/08/05 12:01:06;;;;;;;;;;;27.10;38.20;;;;;;5104493;28;19916;-70
2022/08/05 12:03:46;;;;;;;;;;;27.10;37.00;;;;;;5098618;28;19945;-70
2022/08/05 12:06:14;;;;;;;;;;;27.00;36.90;;;;;;5086107;28;20220;-70
2022/08/05 12:08:40;;;;;;;;;;;26.80;36.90;;;;;;5091957;28;19919;-69
2022/08/05 12:11:07;;;;;;;;;;;26.70;37.30;;;;;;5099252;28;19912;-77
2022/08/05 12:13:33;;;;;;;;;;;26.80;37.70;;;;;;5095500;28;19918;-69
2022/08/05 12:15:58;;;;;;;;;;;26.80;37.60;;;;;;5073289;28;19953;-69
2022/08/05 12:18:31;;;;;;;;;;;27.00;36.80;;;;;;5082407;28;20356;-69
2022/08/05 12:21:08;;;;;;;;;;;27.20;36.50;;;;;;5092294;28;20235;-69
2022/08/05 12:23:33;;;;;;;;;;;27.20;36.10;;;;;;5092644;28;20343;-69
2022/08/05 12:25:59;;;;;;;;;;;27.20;36.10;;;;;;5103743;28;19920;-69
2022/08/05 12:28:30;;;;;;;;;;;27.20;35.80;;;;;;5098850;28;19924;-69
2022/08/05 12:30:56;;;;;;;;;;;27.20;36.30;;;;;;5088422;28;19950;-69
2022/08/05 12:33:22;;;;;;;;;;;27.30;36.30;;;;;;5096190;28;20018;-69
2022/08/05 12:35:48;;;;;;;;;;;27.30;36.00;;;;;;5088536;28;20341;-69
2022/08/05 12:38:14;;;;;;;;;;;27.50;34.70;;;;;;5092763;28;20012;-69
2022/08/05 12:40:39;;;;;;;;;;;27.40;34.90;;;;;;5077442;28;19924;-69
2022/08/05 12:43:08;;;;;;;;;;;27.20;35.10;;;;;;5096347;28;20377;-69
2022/08/05 12:45:33;;;;;;;;;;;27.20;35.30;;;;;;5095535;28;19962;-69
2022/08/05 12:48:12;;;;;;;;;;;27.20;35.70;;;;;;5099453;28;19951;-69
2022/08/05 12:50:37;;;;;;;;;;;27.50;35.00;;;;;;5093719;28;20079;-69
2022/08/05 12:53:03;;;;;;;;;;;27.90;34.70;;;;;;5102294;28;20060;-69
2022/08/05 12:55:29;;;;;;;;;;;28.00;33.80;;;;;;5089801;28;20440;-69
2022/08/05 12:57:56;;;;;;;;;;;28.00;33.60;;;;;;5102944;28;19941;-69
2022/08/05 13:00:23;;;;;;;;;;;28.00;33.60;;;;;;5084990;28;19919;-69
2022/08/05 13:02:51;;;;;;;;;;;28.00;34.00;;;;;;5095304;28;19922;-69
2022/08/05 13:05:16;;;;;;;;;;;27.90;33.60;;;;;;5089892;28;19911;-69
2022/08/05 13:07:44;;;;;;;;;;;27.50;33.20;;;;;;5101020;28;19916;-69
2022/08/05 13:10:10;;;;;;;;;;;27.20;34.00;;;;;;5098726;28;19915;-68
2022/08/05 13:12:40;;;;;;;;;;;27.20;34.30;;;;;;5069817;28;19948;-69
2022/08/05 13:15:08;;;;;;;;;;;27.40;33.90;;;;;;5103608;27;19916;-75
2022/08/05 13:17:34;;;;;;;;;;;27.70;34.20;;;;;;5104652;28;19912;-75
2022/08/05 13:20:01;;;;;;;;;;;28.00;34.20;;;;;;5101111;28;20390;-75
2022/08/05 13:22:27;;;;;;;;;;;28.40;34.00;;;;;;5104763;28;19918;-76
2022/08/05 13:24:52;;;;;;;;;;;28.80;34.10;;;;;;5104735;28;20286;-76
2022/08/05 13:27:30;;;;;;;;;;;28.90;34.20;;;;;;5102775;28;19967;-75
2022/08/05 13:29:56;;;;;;;;;;;28.80;34.90;;;;;;5089388;28;19916;-72
2022/08/05 13:32:22;;;;;;;;;;;28.90;35.20;;;;;;5094326;28;20019;-69
2022/08/05 13:34:49;;;;;;;;;;;28.90;35.30;;;;;;5067923;28;19955;-69
2022/08/05 13:37:15;;;;;;;;;;;29.00;35.30;;;;;;5083670;28;19917;-69
2022/08/05 13:39:40;;;;;;;;;;;29.20;34.70;;;;;;5088726;28;19916;-69
2022/08/05 13:42:07;;;;;;;;;;;29.30;34.30;;;;;;5087328;28;20343;-76
2022/08/05 13:44:32;;;;;;;;;;;29.40;33.20;;;;;;5090618;28;19920;-69
2022/08/05 13:46:58;;;;;;;;;;;29.40;33.20;;;;;;5090703;28;19973;-75
2022/08/05 13:49:23;;;;;;;;;;;29.50;33.20;;;;;;5094038;28;19922;-76
2022/08/05 13:51:49;;;;;;;;;;;29.50;32.20;;;;;;5095985;28;19920;-76
2022/08/05 13:54:16;;;;;;;;;;;29.50;32.20;;;;;;5070193;28;20012;-76
2022/08/05 13:56:42;;;;;;;;;;;29.40;31.50;;;;;;5095164;28;20433;-76
2022/08/05 13:59:07;;;;;;;;;;;29.40;31.90;;;;;;5105231;28;19916;-76
2022/08/05 14:01:34;;;;;;;;;;;29.40;32.10;;;;;;5081549;28;20303;-76
2022/08/05 14:06:44;;;;;;;;;;;29.40;31.30;;;;;;5092987;28;19915;-76
2022/08/05 14:09:10;;;;;;;;;;;29.30;31.80;;;;;;5083553;28;20274;-75
2022/08/05 14:11:39;;;;;;;;;;;29.30;31.40;;;;;;5093746;28;19989;-76
2022/08/05 14:14:05;;;;;;;;;;;29.30;30.70;;;;;;5098606;28;20293;-68
2022/08/05 14:16:31;;;;;;;;;;;29.10;31.20;;;;;;5101569;28;19908;-69
2022/08/05 14:18:56;;;;;;;;;;;29.20;31.30;;;;;;5108572;28;20597;-69
2022/08/05 14:21:22;;;;;;;;;;;29.40;31.60;;;;;;5112343;28;19916;-69
2022/08/05 14:23:47;;;;;;;;;;;29.70;31.90;;;;;;5081817;28;19927;-68